Time;durP1;ratioP1;P1;durP2;ratioP2;P2;SDS_P1;SDS_P2;PMS_P1;PMS_P2;Temp;Humidity;BMP_temperature;BMP_pressure;BME280_temperature;BME280_humidity;BME280_pressure;Samples;Min_cycle;Max_cycle;Signal;HPM_P1;HPM_P2
2023/12/29 00:03:38;;;;;;;;;;;11.10;99.90;;;;;;8420847;28;19931;-75
2023/12/29 00:07:39;;;;;;;;;;;11.10;99.90;;;;;;8436998;28;19964;-75
2023/12/29 00:11:41;;;;;;;;;;;11.10;99.90;;;;;;8447877;28;19923;-76
2023/12/29 00:15:43;;;;;;;;;;;10.80;99.90;;;;;;8443323;28;19924;-75
2023/12/29 00:19:45;;;;;;;;;;;10.40;99.90;;;;;;8426363;28;19924;-75
2023/12/29 00:23:47;;;;;;;;;;;10.20;99.90;;;;;;8442112;28;20268;-76
2023/12/29 00:27:49;;;;;;;;;;;10.00;99.90;;;;;;8430687;28;19984;-75
2023/12/29 00:31:51;;;;;;;;;;;10.00;99.90;;;;;;8456438;28;19923;-76
2023/12/29 00:35:53;;;;;;;;;;;10.00;99.90;;;;;;8437072;28;19932;-76
2023/12/29 00:39:55;;;;;;;;;;;10.10;99.90;;;;;;8435582;28;20387;-76
2023/12/29 00:43:56;;;;;;;;;;;10.20;99.90;;;;;;8420832;28;20333;-75
2023/12/29 00:47:58;;;;;;;;;;;10.40;99.90;;;;;;8448515;28;20286;-76
2023/12/29 00:52:02;;;;;;;;;;;10.50;99.90;;;;;;8436622;28;20418;-76
2023/12/29 00:56:09;;;;;;;;;;;10.60;99.90;;;;;;8422532;28;20287;-75
2023/12/29 01:00:12;;;;;;;;;;;10.60;99.90;;;;;;8434145;28;19924;-75
2023/12/29 01:04:13;;;;;;;;;;;10.70;99.90;;;;;;8428037;28;19931;-75
2023/12/29 01:08:15;;;;;;;;;;;10.80;99.90;;;;;;8445077;28;19927;-76
2023/12/29 01:12:17;;;;;;;;;;;10.80;99.90;;;;;;8433422;28;19924;-76
2023/12/29 01:16:19;;;;;;;;;;;10.80;99.90;;;;;;8446111;28;19924;-76
2023/12/29 01:20:20;;;;;;;;;;;10.90;99.90;;;;;;8438679;28;19924;-75
2023/12/29 01:24:22;;;;;;;;;;;10.90;99.90;;;;;;8440083;28;19981;-75
2023/12/29 01:28:30;;;;;;;;;;;10.80;99.90;;;;;;8448116;28;19930;-75
2023/12/29 01:32:32;;;;;;;;;;;10.80;99.90;;;;;;8448613;28;19923;-75
2023/12/29 01:36:33;;;;;;;;;;;10.80;99.90;;;;;;8441916;28;19924;-75
2023/12/29 01:40:45;;;;;;;;;;;10.80;99.90;;;;;;8444732;28;19924;-76
2023/12/29 01:44:51;;;;;;;;;;;10.80;99.90;;;;;;8444776;28;19930;-75
2023/12/29 01:48:53;;;;;;;;;;;10.70;99.90;;;;;;8434070;28;19924;-75
2023/12/29 01:52:56;;;;;;;;;;;10.70;99.90;;;;;;8426233;28;20290;-76
2023/12/29 01:57:00;;;;;;;;;;;10.70;99.90;;;;;;8424921;28;20414;-76
2023/12/29 02:01:02;;;;;;;;;;;10.70;99.90;;;;;;8415490;28;19924;-75
2023/12/29 02:05:03;;;;;;;;;;;10.70;99.90;;;;;;8437560;28;19971;-76
2023/12/29 02:09:05;;;;;;;;;;;10.60;99.90;;;;;;8437570;28;19967;-75
2023/12/29 02:13:07;;;;;;;;;;;10.40;99.90;;;;;;8438131;28;19939;-75
2023/12/29 02:17:24;;;;;;;;;;;10.30;99.90;;;;;;8439833;28;19968;-75
2023/12/29 02:21:26;;;;;;;;;;;10.40;99.90;;;;;;8444145;28;19938;-75
2023/12/29 02:25:28;;;;;;;;;;;10.30;99.90;;;;;;8425643;28;19930;-75
2023/12/29 02:29:31;;;;;;;;;;;10.10;99.90;;;;;;8445977;28;19924;-75
2023/12/29 02:33:35;;;;;;;;;;;10.10;99.90;;;;;;8430167;28;19979;-75
2023/12/29 02:37:38;;;;;;;;;;;10.10;99.90;;;;;;8434964;28;19938;-76
2023/12/29 02:41:40;;;;;;;;;;;10.00;99.90;;;;;;8433531;28;20407;-75
2023/12/29 02:45:42;;;;;;;;;;;9.90;99.90;;;;;;8440085;28;20277;-75
2023/12/29 02:49:43;;;;;;;;;;;9.70;99.90;;;;;;8419221;28;19946;-75
2023/12/29 02:53:45;;;;;;;;;;;9.60;99.90;;;;;;8441543;28;19953;-77
2023/12/29 02:57:47;;;;;;;;;;;9.60;99.90;;;;;;8423663;28;19924;-77
2023/12/29 03:01:49;;;;;;;;;;;9.60;99.90;;;;;;8424624;28;19924;-76
2023/12/29 03:05:51;;;;;;;;;;;9.50;99.90;;;;;;8433151;28;19934;-78
2023/12/29 03:09:53;;;;;;;;;;;9.50;99.90;;;;;;8417167;28;20398;-77
2023/12/29 03:13:54;;;;;;;;;;;9.50;99.90;;;;;;8442647;28;19924;-77
2023/12/29 03:17:57;;;;;;;;;;;9.50;99.90;;;;;;8421586;28;20395;-76
2023/12/29 03:21:59;;;;;;;;;;;9.50;99.90;;;;;;8438964;28;19931;-77
2023/12/29 03:26:00;;;;;;;;;;;9.50;99.90;;;;;;8420007;28;20003;-76
2023/12/29 03:30:02;;;;;;;;;;;9.60;99.90;;;;;;8433256;28;19931;-77
2023/12/29 03:34:04;;;;;;;;;;;9.60;99.90;;;;;;8413061;28;19924;-76
2023/12/29 03:38:06;;;;;;;;;;;9.60;99.90;;;;;;8430300;28;19932;-76
2023/12/29 03:42:07;;;;;;;;;;;9.70;99.90;;;;;;8445583;28;19935;-76
2023/12/29 03:46:19;;;;;;;;;;;9.70;99.90;;;;;;8447416;28;19962;-76
2023/12/29 03:50:21;;;;;;;;;;;9.80;99.90;;;;;;8445874;28;20324;-75
2023/12/29 03:54:22;;;;;;;;;;;9.80;99.90;;;;;;8446010;28;19953;-76
2023/12/29 03:58:24;;;;;;;;;;;9.60;99.90;;;;;;8449814;28;19924;-77
2023/12/29 04:02:26;;;;;;;;;;;9.50;99.90;;;;;;8443250;28;19923;-76
2023/12/29 04:06:27;;;;;;;;;;;9.40;99.90;;;;;;8443887;28;19931;-76
2023/12/29 04:10:29;;;;;;;;;;;9.40;99.90;;;;;;8446202;28;20556;-76
2023/12/29 04:14:31;;;;;;;;;;;9.40;99.90;;;;;;8451493;28;20277;-76
2023/12/29 04:18:32;;;;;;;;;;;9.40;99.90;;;;;;8448256;28;19924;-76
2023/12/29 04:22:34;;;;;;;;;;;9.40;99.90;;;;;;8431147;28;19931;-77
2023/12/29 04:26:36;;;;;;;;;;;9.40;99.90;;;;;;8437348;28;19928;-77
2023/12/29 04:30:38;;;;;;;;;;;9.40;99.90;;;;;;8446560;28;19924;-77
2023/12/29 04:34:40;;;;;;;;;;;9.40;99.90;;;;;;8428077;28;20354;-77
2023/12/29 04:38:42;;;;;;;;;;;9.50;99.90;;;;;;8437100;28;19935;-76
2023/12/29 04:42:43;;;;;;;;;;;9.50;99.90;;;;;;8414615;28;19924;-76
2023/12/29 04:46:45;;;;;;;;;;;9.60;99.90;;;;;;8441168;28;19934;-76
2023/12/29 04:51:18;;;;;;;;;;;9.60;99.90;;;;;;8442929;28;19938;-76
2023/12/29 04:55:20;;;;;;;;;;;9.60;99.90;;;;;;8421839;28;19924;-76
2023/12/29 04:59:21;;;;;;;;;;;9.60;99.90;;;;;;8424263;28;20379;-76
2023/12/29 05:03:23;;;;;;;;;;;9.60;99.90;;;;;;8446435;28;19963;-77
2023/12/29 05:07:26;;;;;;;;;;;9.70;99.90;;;;;;8437506;28;20339;-76
2023/12/29 05:11:28;;;;;;;;;;;9.70;99.90;;;;;;8435810;28;20375;-76
2023/12/29 05:15:30;;;;;;;;;;;9.70;99.90;;;;;;8443694;28;19934;-76
2023/12/29 05:19:31;;;;;;;;;;;9.70;99.90;;;;;;8438557;28;19932;-76
2023/12/29 05:23:33;;;;;;;;;;;9.70;99.90;;;;;;8441509;28;19928;-76
2023/12/29 05:27:35;;;;;;;;;;;9.70;99.90;;;;;;8415959;28;20268;-75
2023/12/29 05:31:38;;;;;;;;;;;9.70;99.90;;;;;;8443744;28;19967;-76
2023/12/29 05:35:39;;;;;;;;;;;9.80;99.90;;;;;;8442351;28;19967;-76
2023/12/29 05:39:42;;;;;;;;;;;9.80;99.90;;;;;;8438005;28;19924;-75
2023/12/29 05:43:43;;;;;;;;;;;9.80;99.90;;;;;;8441862;28;19924;-76
2023/12/29 05:47:45;;;;;;;;;;;9.80;99.90;;;;;;8437038;28;19928;-76
2023/12/29 05:51:47;;;;;;;;;;;9.80;99.90;;;;;;8415411;28;19928;-76
2023/12/29 05:55:49;;;;;;;;;;;9.80;99.90;;;;;;8420238;28;19947;-76
2023/12/29 05:59:50;;;;;;;;;;;9.80;99.90;;;;;;8435222;28;19928;-75
2023/12/29 06:03:52;;;;;;;;;;;9.90;99.90;;;;;;8426150;28;19924;-76
2023/12/29 06:07:54;;;;;;;;;;;9.90;99.90;;;;;;8420650;28;20369;-75
2023/12/29 06:11:55;;;;;;;;;;;9.90;99.90;;;;;;8420702;28;19947;-76
2023/12/29 06:15:57;;;;;;;;;;;9.90;99.90;;;;;;8436861;28;19932;-76
2023/12/29 06:19:59;;;;;;;;;;;9.90;99.90;;;;;;8413179;28;19928;-76
2023/12/29 06:24:01;;;;;;;;;;;9.90;99.90;;;;;;8437177;28;19978;-76
2023/12/29 06:28:06;;;;;;;;;;;10.00;99.90;;;;;;8437927;28;20346;-75
2023/12/29 06:32:08;;;;;;;;;;;10.00;99.90;;;;;;8427589;28;19927;-76
2023/12/29 06:36:10;;;;;;;;;;;10.00;99.90;;;;;;8438837;28;20306;-76
2023/12/29 06:40:12;;;;;;;;;;;10.00;99.90;;;;;;8428207;28;19977;-76
2023/12/29 06:44:14;;;;;;;;;;;10.00;99.90;;;;;;8433170;28;19977;-75
2023/12/29 06:48:16;;;;;;;;;;;10.00;99.90;;;;;;8441924;28;19977;-76
2023/12/29 06:52:19;;;;;;;;;;;10.00;99.90;;;;;;8432964;28;19946;-76
2023/12/29 06:56:20;;;;;;;;;;;10.00;99.90;;;;;;8443970;28;19946;-75
2023/12/29 07:00:22;;;;;;;;;;;10.00;99.90;;;;;;8450576;28;19923;-76
2023/12/29 07:04:24;;;;;;;;;;;10.00;99.90;;;;;;8438785;28;20337;-76
2023/12/29 07:08:26;;;;;;;;;;;10.00;99.90;;;;;;8422848;28;20422;-76
2023/12/29 07:12:28;;;;;;;;;;;10.00;99.90;;;;;;8435921;28;19923;-76
2023/12/29 07:16:29;;;;;;;;;;;10.00;99.90;;;;;;8415116;28;19928;-76
2023/12/29 07:20:31;;;;;;;;;;;10.00;99.90;;;;;;8443493;28;19927;-75
2023/12/29 07:24:35;;;;;;;;;;;10.00;99.90;;;;;;8434152;28;20016;-75
2023/12/29 07:28:36;;;;;;;;;;;10.00;99.90;;;;;;8435733;28;19939;-75
2023/12/29 07:32:38;;;;;;;;;;;9.90;99.90;;;;;;8413113;28;19977;-75
2023/12/29 07:36:40;;;;;;;;;;;9.90;99.90;;;;;;8436474;28;19985;-76
2023/12/29 07:40:42;;;;;;;;;;;9.70;99.90;;;;;;8425962;28;19932;-75
2023/12/29 07:44:44;;;;;;;;;;;9.60;99.90;;;;;;8437535;28;20009;-75
2023/12/29 07:48:45;;;;;;;;;;;9.50;99.90;;;;;;8445931;28;19943;-76
2023/12/29 07:52:47;;;;;;;;;;;9.50;99.90;;;;;;8441797;28;19970;-75
2023/12/29 07:56:50;;;;;;;;;;;9.50;99.90;;;;;;8436355;28;20008;-76
2023/12/29 08:00:52;;;;;;;;;;;9.60;99.90;;;;;;8434893;28;19950;-75
2023/12/29 08:04:55;;;;;;;;;;;9.60;99.90;;;;;;8411499;28;19924;-75
2023/12/29 08:08:57;;;;;;;;;;;9.60;99.90;;;;;;8407369;28;19954;-76
2023/12/29 08:12:58;;;;;;;;;;;9.70;99.90;;;;;;8432996;28;19931;-75
2023/12/29 08:17:00;;;;;;;;;;;9.70;99.90;;;;;;8426764;28;20298;-75
2023/12/29 08:21:02;;;;;;;;;;;9.70;99.90;;;;;;8418282;28;19931;-76
2023/12/29 08:25:04;;;;;;;;;;;9.70;99.90;;;;;;8420861;28;20429;-75
2023/12/29 08:29:06;;;;;;;;;;;9.80;99.90;;;;;;8436456;28;19928;-75
2023/12/29 08:33:07;;;;;;;;;;;9.80;99.90;;;;;;8437824;28;19928;-75
2023/12/29 08:37:09;;;;;;;;;;;9.80;99.90;;;;;;8439015;28;19924;-75
2023/12/29 08:41:13;;;;;;;;;;;9.80;99.90;;;;;;8426746;28;20379;-75
2023/12/29 08:45:15;;;;;;;;;;;9.70;99.90;;;;;;8437586;28;20317;-75
2023/12/29 08:49:16;;;;;;;;;;;9.70;99.90;;;;;;8439021;28;19951;-77
2023/12/29 08:53:18;;;;;;;;;;;9.70;99.90;;;;;;8441953;28;19966;-76
2023/12/29 08:57:20;;;;;;;;;;;9.70;99.90;;;;;;8445989;28;19924;-76
2023/12/29 09:01:21;;;;;;;;;;;9.70;99.90;;;;;;8444947;28;20031;-76
2023/12/29 09:05:23;;;;;;;;;;;9.70;99.90;;;;;;8440517;28;19924;-75
2023/12/29 09:09:25;;;;;;;;;;;9.70;99.90;;;;;;8444351;28;19924;-75
2023/12/29 09:13:26;;;;;;;;;;;9.80;99.90;;;;;;8445022;28;19943;-76
2023/12/29 09:17:29;;;;;;;;;;;9.80;99.90;;;;;;8426634;28;20330;-75
2023/12/29 09:21:31;;;;;;;;;;;9.90;99.90;;;;;;8441538;28;19924;-75
2023/12/29 09:25:32;;;;;;;;;;;10.00;99.90;;;;;;8426626;28;19924;-76
2023/12/29 09:29:34;;;;;;;;;;;10.10;99.90;;;;;;8422995;28;19924;-75
2023/12/29 09:33:36;;;;;;;;;;;10.10;99.90;;;;;;8421422;28;20272;-76
2023/12/29 09:37:38;;;;;;;;;;;10.10;99.90;;;;;;8450047;28;19938;-75
2023/12/29 09:41:42;;;;;;;;;;;10.20;99.90;;;;;;8442932;28;19976;-76
2023/12/29 09:45:46;;;;;;;;;;;10.20;99.90;;;;;;8449592;28;19928;-76
2023/12/29 09:49:48;;;;;;;;;;;10.30;99.90;;;;;;8441727;28;19924;-76
2023/12/29 09:53:51;;;;;;;;;;;10.30;99.90;;;;;;8444107;28;20449;-76
2023/12/29 09:57:54;;;;;;;;;;;10.30;99.90;;;;;;8440513;28;19930;-75
2023/12/29 10:01:56;;;;;;;;;;;10.40;99.90;;;;;;8442935;28;19924;-75
2023/12/29 10:06:00;;;;;;;;;;;10.50;99.90;;;;;;8433651;28;20448;-76
2023/12/29 10:10:02;;;;;;;;;;;10.50;99.90;;;;;;8440679;28;19930;-75
2023/12/29 10:14:18;;;;;;;;;;;10.60;99.90;;;;;;8419718;28;20313;-75
2023/12/29 10:18:27;;;;;;;;;;;10.60;99.90;;;;;;8439495;28;19924;-75
2023/12/29 10:22:34;;;;;;;;;;;10.60;99.90;;;;;;8440712;28;20379;-76
2023/12/29 10:26:36;;;;;;;;;;;10.60;99.90;;;;;;8448888;28;19924;-75
2023/12/29 10:30:38;;;;;;;;;;;10.70;99.90;;;;;;8437341;28;19936;-75
2023/12/29 10:34:41;;;;;;;;;;;10.80;99.90;;;;;;8434117;28;19939;-75
2023/12/29 10:38:44;;;;;;;;;;;10.90;99.90;;;;;;8425499;28;19924;-75
2023/12/29 10:42:55;;;;;;;;;;;10.80;99.90;;;;;;8437028;28;20338;-75
2023/12/29 10:46:57;;;;;;;;;;;10.90;99.90;;;;;;8441911;28;19934;-76
2023/12/29 10:50:58;;;;;;;;;;;10.90;99.90;;;;;;8412210;28;19924;-75
2023/12/29 10:55:04;;;;;;;;;;;10.90;99.90;;;;;;8444329;28;19969;-75
2023/12/29 10:59:06;;;;;;;;;;;10.90;99.90;;;;;;8442068;28;20038;-76
2023/12/29 11:03:14;;;;;;;;;;;10.80;99.90;;;;;;8438622;28;19974;-75
2023/12/29 11:07:18;;;;;;;;;;;10.90;99.90;;;;;;8423598;28;19935;-75
2023/12/29 11:11:20;;;;;;;;;;;10.90;99.90;;;;;;8439567;28;19930;-75
2023/12/29 11:15:24;;;;;;;;;;;10.90;99.90;;;;;;8442066;28;19969;-75
2023/12/29 11:19:26;;;;;;;;;;;10.90;99.90;;;;;;8414219;28;19924;-75
2023/12/29 11:23:28;;;;;;;;;;;10.90;99.90;;;;;;8436253;28;20435;-76
2023/12/29 11:27:30;;;;;;;;;;;11.00;99.90;;;;;;8438935;28;19935;-76
2023/12/29 11:31:32;;;;;;;;;;;11.10;99.90;;;;;;8425953;28;19928;-75
2023/12/29 11:35:37;;;;;;;;;;;11.30;99.90;;;;;;8426967;28;20294;-75
2023/12/29 11:39:40;;;;;;;;;;;11.40;99.90;;;;;;8432931;28;20034;-75
2023/12/29 11:43:41;;;;;;;;;;;11.50;99.90;;;;;;8436226;28;19924;-75
2023/12/29 11:47:44;;;;;;;;;;;11.60;99.90;;;;;;8427103;28;19966;-75
2023/12/29 11:51:49;;;;;;;;;;;11.60;99.90;;;;;;8430036;28;19947;-75
2023/12/29 11:55:51;;;;;;;;;;;11.60;99.90;;;;;;8431512;28;19932;-75
2023/12/29 11:59:52;;;;;;;;;;;11.70;99.90;;;;;;8428835;28;19924;-75
2023/12/29 12:03:55;;;;;;;;;;;11.60;99.90;;;;;;8449452;28;19924;-75
2023/12/29 12:07:57;;;;;;;;;;;11.50;99.90;;;;;;8439359;28;19928;-75
2023/12/29 12:11:59;;;;;;;;;;;11.40;99.90;;;;;;8436610;28;19981;-74
2023/12/29 12:16:01;;;;;;;;;;;11.40;99.90;;;;;;8444871;28;19981;-74
2023/12/29 12:20:06;;;;;;;;;;;11.40;99.90;;;;;;8451449;28;19955;-75
2023/12/29 12:24:08;;;;;;;;;;;11.40;99.90;;;;;;8449236;28;19980;-75
2023/12/29 12:28:10;;;;;;;;;;;11.50;99.90;;;;;;8446660;28;19931;-75
2023/12/29 12:32:11;;;;;;;;;;;11.70;99.90;;;;;;8428703;28;20341;-75
2023/12/29 12:36:13;;;;;;;;;;;11.80;99.90;;;;;;8446197;28;20326;-75
2023/12/29 12:40:25;;;;;;;;;;;11.80;99.90;;;;;;8429066;28;19978;-75
2023/12/29 12:44:29;;;;;;;;;;;11.80;99.90;;;;;;8444084;28;19927;-75
2023/12/29 12:48:45;;;;;;;;;;;11.80;99.90;;;;;;8437286;28;19923;-75
2023/12/29 12:52:47;;;;;;;;;;;11.80;99.90;;;;;;8428355;28;20001;-75
2023/12/29 12:56:49;;;;;;;;;;;11.80;99.90;;;;;;8421835;28;19947;-75
2023/12/29 13:00:51;;;;;;;;;;;11.90;99.90;;;;;;8441408;28;19924;-74
2023/12/29 13:04:54;;;;;;;;;;;11.90;99.90;;;;;;8448000;28;20328;-75
2023/12/29 13:08:56;;;;;;;;;;;11.90;99.90;;;;;;8425886;28;20426;-75
2023/12/29 13:12:58;;;;;;;;;;;11.80;99.90;;;;;;8446381;28;19924;-75
2023/12/29 13:17:04;;;;;;;;;;;11.70;99.90;;;;;;8428281;28;19927;-75
2023/12/29 13:21:06;;;;;;;;;;;11.60;99.90;;;;;;8439381;28;19924;-74
2023/12/29 13:25:09;;;;;;;;;;;11.60;99.90;;;;;;8449591;28;20007;-75
2023/12/29 13:29:12;;;;;;;;;;;11.50;99.90;;;;;;8437103;28;19977;-75
2023/12/29 13:33:19;;;;;;;;;;;11.40;99.90;;;;;;8411472;28;19925;-74
2023/12/29 13:37:21;;;;;;;;;;;11.40;99.90;;;;;;8438413;28;19930;-75
2023/12/29 13:41:23;;;;;;;;;;;11.40;99.90;;;;;;8422714;28;19986;-74
2023/12/29 13:45:25;;;;;;;;;;;11.40;99.90;;;;;;8443237;28;20342;-75
2023/12/29 13:49:27;;;;;;;;;;;11.40;99.90;;;;;;8437290;28;20003;-75
2023/12/29 13:53:30;;;;;;;;;;;11.40;99.90;;;;;;8448683;28;19924;-75
2023/12/29 13:57:32;;;;;;;;;;;11.40;99.90;;;;;;8421332;28;19933;-75
2023/12/29 14:01:39;;;;;;;;;;;11.30;99.90;;;;;;8425445;28;19985;-74
2023/12/29 14:05:49;;;;;;;;;;;11.30;99.90;;;;;;8425853;28;20031;-75
2023/12/29 14:09:53;;;;;;;;;;;11.30;99.90;;;;;;8428508;28;19935;-75
2023/12/29 14:13:55;;;;;;;;;;;11.20;99.90;;;;;;8419965;28;19973;-76
2023/12/29 14:17:57;;;;;;;;;;;11.20;99.90;;;;;;8423653;28;20106;-75
2023/12/29 14:21:59;;;;;;;;;;;11.10;99.90;;;;;;8413048;28;19934;-75
2023/12/29 14:26:04;;;;;;;;;;;11.00;99.90;;;;;;8424669;28;19985;-75
2023/12/29 14:30:17;;;;;;;;;;;11.00;99.90;;;;;;8421723;28;19977;-75
2023/12/29 14:34:19;;;;;;;;;;;10.90;99.90;;;;;;8427859;28;19924;-75
2023/12/29 14:38:22;;;;;;;;;;;10.90;99.90;;;;;;8426249;28;19924;-75
2023/12/29 14:42:24;;;;;;;;;;;10.90;99.90;;;;;;8423928;28;19954;-74
2023/12/29 14:46:26;;;;;;;;;;;10.90;99.90;;;;;;8403218;28;19969;-75
2023/12/29 14:50:29;;;;;;;;;;;10.90;99.90;;;;;;8419715;28;20214;-75
2023/12/29 14:54:31;;;;;;;;;;;10.80;99.90;;;;;;8421320;28;19965;-74
2023/12/29 14:58:33;;;;;;;;;;;10.60;99.90;;;;;;8407939;28;20403;-76
2023/12/29 15:02:34;;;;;;;;;;;10.40;99.90;;;;;;8425305;28;20385;-75
2023/12/29 15:06:36;;;;;;;;;;;10.10;99.90;;;;;;8420140;28;19928;-76
2023/12/29 15:10:38;;;;;;;;;;;9.90;99.90;;;;;;8410442;28;19928;-76
2023/12/29 15:14:39;;;;;;;;;;;9.70;99.90;;;;;;8419727;28;19932;-76
2023/12/29 15:18:41;;;;;;;;;;;9.60;99.90;;;;;;8406585;28;20411;-76
2023/12/29 15:22:43;;;;;;;;;;;9.50;99.90;;;;;;8428133;28;19923;-76
2023/12/29 15:26:44;;;;;;;;;;;9.40;99.90;;;;;;8427269;28;19949;-75
2023/12/29 15:30:46;;;;;;;;;;;9.30;99.90;;;;;;8426909;28;19951;-76
2023/12/29 15:34:48;;;;;;;;;;;9.20;99.90;;;;;;8414373;28;19955;-76
2023/12/29 15:38:50;;;;;;;;;;;9.20;99.90;;;;;;8436288;28;19928;-75
2023/12/29 15:42:52;;;;;;;;;;;9.10;99.90;;;;;;8428376;28;19936;-76
2023/12/29 15:46:54;;;;;;;;;;;9.20;99.90;;;;;;8427020;28;19939;-75
2023/12/29 15:50:57;;;;;;;;;;;9.20;99.90;;;;;;8420480;28;20005;-75
2023/12/29 15:54:58;;;;;;;;;;;9.20;99.90;;;;;;8409666;28;19927;-76
2023/12/29 15:59:00;;;;;;;;;;;9.20;99.90;;;;;;8429065;28;20337;-75
2023/12/29 16:03:03;;;;;;;;;;;9.30;99.90;;;;;;8422248;28;20106;-75
2023/12/29 16:07:05;;;;;;;;;;;9.40;99.90;;;;;;8428022;28;20019;-75
2023/12/29 16:11:07;;;;;;;;;;;9.60;99.90;;;;;;8428712;28;19924;-75
2023/12/29 16:15:09;;;;;;;;;;;9.70;99.90;;;;;;8423426;28;19932;-75
2023/12/29 16:19:11;;;;;;;;;;;9.70;99.90;;;;;;8408359;28;20019;-75
2023/12/29 16:23:12;;;;;;;;;;;9.70;99.90;;;;;;8427968;28;19923;-75
2023/12/29 16:27:14;;;;;;;;;;;9.80;99.90;;;;;;8410224;28;19932;-75
2023/12/29 16:31:16;;;;;;;;;;;9.80;99.90;;;;;;8434795;28;19931;-76
2023/12/29 16:35:18;;;;;;;;;;;9.80;99.90;;;;;;8418847;28;19924;-76
2023/12/29 16:39:19;;;;;;;;;;;9.80;99.90;;;;;;8423319;28;19985;-76
2023/12/29 16:43:21;;;;;;;;;;;9.80;99.90;;;;;;8412031;28;19928;-75
2023/12/29 16:47:23;;;;;;;;;;;9.70;99.90;;;;;;8437790;28;19924;-75
2023/12/29 16:51:25;;;;;;;;;;;9.70;99.90;;;;;;8411363;28;19931;-75
2023/12/29 16:55:26;;;;;;;;;;;9.60;99.90;;;;;;8412501;28;19978;-75
2023/12/29 16:59:28;;;;;;;;;;;9.60;99.90;;;;;;8408124;28;19924;-75
2023/12/29 17:03:30;;;;;;;;;;;9.60;99.90;;;;;;8421099;28;19935;-75
2023/12/29 17:07:32;;;;;;;;;;;9.60;99.90;;;;;;8427609;28;19924;-75
2023/12/29 17:11:34;;;;;;;;;;;9.50;99.90;;;;;;8431865;28;19979;-75
2023/12/29 17:15:36;;;;;;;;;;;9.10;99.90;;;;;;8411184;28;19981;-75
2023/12/29 17:19:38;;;;;;;;;;;8.70;99.90;;;;;;8429652;28;19924;-75
2023/12/29 17:23:40;;;;;;;;;;;8.30;99.90;;;;;;8426227;28;19924;-75
2023/12/29 17:27:43;;;;;;;;;;;8.00;99.90;;;;;;8426823;28;19981;-75
2023/12/29 17:31:44;;;;;;;;;;;7.90;99.90;;;;;;8428142;28;19924;-76
2023/12/29 17:35:46;;;;;;;;;;;7.70;99.90;;;;;;8418754;28;19979;-75
2023/12/29 17:39:48;;;;;;;;;;;7.70;99.90;;;;;;8413497;28;19924;-75
2023/12/29 17:43:50;;;;;;;;;;;7.60;99.90;;;;;;8407752;28;19924;-75
2023/12/29 17:47:51;;;;;;;;;;;7.60;99.90;;;;;;8426418;28;19924;-75
2023/12/29 17:51:53;;;;;;;;;;;7.60;99.90;;;;;;8424331;28;19980;-75
2023/12/29 17:55:55;;;;;;;;;;;7.60;99.90;;;;;;8414572;28;19996;-75
2023/12/29 17:59:56;;;;;;;;;;;7.60;99.90;;;;;;8416172;28;19950;-75
2023/12/29 18:03:58;;;;;;;;;;;7.50;99.90;;;;;;8430155;28;19930;-75
2023/12/29 18:08:00;;;;;;;;;;;7.50;99.90;;;;;;8426119;28;19934;-75
2023/12/29 18:12:02;;;;;;;;;;;7.40;99.90;;;;;;8424994;28;20015;-75
2023/12/29 18:16:09;;;;;;;;;;;7.40;99.90;;;;;;8416550;28;20023;-75
2023/12/29 18:20:15;;;;;;;;;;;7.40;99.90;;;;;;8421725;28;20352;-75
2023/12/29 18:24:16;;;;;;;;;;;7.30;99.90;;;;;;8424595;28;19939;-75
2023/12/29 18:28:18;;;;;;;;;;;7.30;99.90;;;;;;8420036;28;19931;-75
2023/12/29 18:37:23;;;;;;;;;;;7.40;99.90;;;;;;8419582;28;19930;-75
2023/12/29 18:41:25;;;;;;;;;;;7.40;99.90;;;;;;8420203;28;19979;-75
2023/12/29 18:50:44;;;;;;;;;;;7.40;99.90;;;;;;8380873;28;19971;-75
2023/12/29 19:04:30;;;;;;;;;;;7.30;99.90;;;;;;8423822;27;19928;-75
2023/12/29 19:08:32;;;;;;;;;;;7.20;99.90;;;;;;8419334;28;19986;-75
2023/12/29 19:12:33;;;;;;;;;;;7.20;99.90;;;;;;8422344;28;19924;-75
2023/12/29 19:16:35;;;;;;;;;;;7.20;99.90;;;;;;8411727;28;19935;-75
2023/12/29 19:20:37;;;;;;;;;;;7.10;99.90;;;;;;8418590;28;20052;-75
2023/12/29 19:34:46;;;;;;;;;;;7.20;99.90;;;;;;8421683;28;19973;-75
2023/12/29 19:38:49;;;;;;;;;;;7.30;99.90;;;;;;8402182;28;20026;-75
2023/12/29 19:42:51;;;;;;;;;;;7.40;99.90;;;;;;8414948;28;19928;-74
2023/12/29 19:46:52;;;;;;;;;;;7.60;99.90;;;;;;8420268;28;19932;-75
2023/12/29 19:50:54;;;;;;;;;;;7.70;99.90;;;;;;8402494;28;19924;-75
2023/12/29 19:54:56;;;;;;;;;;;7.80;99.90;;;;;;8418617;28;19928;-75
2023/12/29 19:58:58;;;;;;;;;;;7.90;99.90;;;;;;8411873;28;19936;-75
2023/12/29 20:02:59;;;;;;;;;;;8.00;99.90;;;;;;8425017;28;19932;-75
2023/12/29 20:07:01;;;;;;;;;;;8.10;99.90;;;;;;8422150;28;20334;-75
2023/12/29 20:11:03;;;;;;;;;;;8.20;99.90;;;;;;8421361;28;20314;-75
2023/12/29 20:15:06;;;;;;;;;;;8.20;99.90;;;;;;8419356;28;19927;-75
2023/12/29 20:19:11;;;;;;;;;;;8.20;99.90;;;;;;8415600;28;20456;-75
2023/12/29 20:23:13;;;;;;;;;;;8.20;99.90;;;;;;8428240;28;19996;-74
2023/12/29 20:27:14;;;;;;;;;;;8.20;99.90;;;;;;8428184;28;19935;-75
2023/12/29 20:31:32;;;;;;;;;;;8.10;99.90;;;;;;8427239;28;19924;-75
2023/12/29 20:35:36;;;;;;;;;;;8.10;99.90;;;;;;8424764;28;20283;-75
2023/12/29 20:39:38;;;;;;;;;;;8.10;99.90;;;;;;8416283;28;19938;-75
2023/12/29 20:43:40;;;;;;;;;;;8.10;99.90;;;;;;8427685;28;19939;-75
2023/12/29 20:47:41;;;;;;;;;;;8.20;99.90;;;;;;8419234;28;20345;-75
2023/12/29 20:51:43;;;;;;;;;;;8.20;99.90;;;;;;8422592;28;19954;-75
2023/12/29 20:55:48;;;;;;;;;;;8.10;99.90;;;;;;8421149;28;20384;-76
2023/12/29 20:59:49;;;;;;;;;;;7.20;99.90;;;;;;8403326;28;19928;-77
2023/12/29 21:03:52;;;;;;;;;;;6.30;99.90;;;;;;8424100;28;19951;-76
2023/12/29 21:07:53;;;;;;;;;;;5.90;99.90;;;;;;8425040;28;20332;-76
2023/12/29 21:11:55;;;;;;;;;;;5.90;99.90;;;;;;8426925;28;19985;-77
2023/12/29 21:15:57;;;;;;;;;;;5.90;99.90;;;;;;8415504;28;19924;-76
2023/12/29 21:19:59;;;;;;;;;;;6.00;99.90;;;;;;8431252;28;20299;-76
2023/12/29 21:24:00;;;;;;;;;;;6.10;99.90;;;;;;8428017;28;19970;-76
2023/12/29 21:28:03;;;;;;;;;;;6.20;99.90;;;;;;8425307;28;19932;-76
2023/12/29 21:32:06;;;;;;;;;;;6.30;99.90;;;;;;8425819;28;19935;-76
2023/12/29 21:36:18;;;;;;;;;;;6.30;99.90;;;;;;8407816;28;19958;-76
2023/12/29 21:40:20;;;;;;;;;;;6.30;99.90;;;;;;8409984;28;19932;-76
2023/12/29 21:44:22;;;;;;;;;;;6.40;99.90;;;;;;8415149;28;19931;-76
2023/12/29 21:48:23;;;;;;;;;;;6.50;99.90;;;;;;8413808;28;19928;-76
2023/12/29 21:52:26;;;;;;;;;;;6.60;99.90;;;;;;8420934;28;19963;-76
2023/12/29 21:56:28;;;;;;;;;;;6.60;99.90;;;;;;8404950;28;19924;-76
2023/12/29 22:00:30;;;;;;;;;;;6.60;99.90;;;;;;8408903;28;20304;-76
2023/12/29 22:04:31;;;;;;;;;;;6.60;99.90;;;;;;8430636;28;19928;-76
2023/12/29 22:08:33;;;;;;;;;;;6.60;99.90;;;;;;8420134;28;20010;-76
2023/12/29 22:12:35;;;;;;;;;;;6.60;99.90;;;;;;8437294;28;19928;-76
2023/12/29 22:16:37;;;;;;;;;;;6.70;99.90;;;;;;8417958;28;19931;-76
2023/12/29 22:20:39;;;;;;;;;;;6.70;99.90;;;;;;8440469;28;19928;-76
2023/12/29 22:24:40;;;;;;;;;;;6.80;99.90;;;;;;8411759;28;19935;-76
2023/12/29 22:28:43;;;;;;;;;;;6.90;99.90;;;;;;8430664;28;19924;-77
2023/12/29 22:32:45;;;;;;;;;;;7.00;99.90;;;;;;8418626;28;19962;-76
2023/12/29 22:36:47;;;;;;;;;;;7.00;99.90;;;;;;8425675;28;20371;-76
2023/12/29 22:40:48;;;;;;;;;;;7.10;99.90;;;;;;8431407;28;19931;-76
2023/12/29 22:44:50;;;;;;;;;;;7.10;99.90;;;;;;8418473;28;19932;-76
2023/12/29 22:48:53;;;;;;;;;;;7.10;99.90;;;;;;8414247;28;19924;-76
2023/12/29 22:52:55;;;;;;;;;;;7.20;99.90;;;;;;8422553;28;19978;-76
2023/12/29 22:56:57;;;;;;;;;;;7.20;99.90;;;;;;8430750;28;19928;-76
2023/12/29 23:00:59;;;;;;;;;;;7.30;99.90;;;;;;8418110;28;19974;-76
2023/12/29 23:05:00;;;;;;;;;;;7.30;99.90;;;;;;8430858;28;19932;-76
2023/12/29 23:09:03;;;;;;;;;;;7.40;99.90;;;;;;8410891;28;19985;-76
2023/12/29 23:13:05;;;;;;;;;;;7.40;99.90;;;;;;8414564;28;19931;-76
2023/12/29 23:17:10;;;;;;;;;;;7.50;99.90;;;;;;8429236;28;20010;-76
2023/12/29 23:21:12;;;;;;;;;;;7.50;99.90;;;;;;8419536;28;19924;-76
2023/12/29 23:25:14;;;;;;;;;;;7.60;99.90;;;;;;8409911;28;20375;-76
2023/12/29 23:29:16;;;;;;;;;;;7.50;99.90;;;;;;8418283;28;20336;-76
2023/12/29 23:33:18;;;;;;;;;;;7.50;99.90;;;;;;8412156;28;20340;-76
2023/12/29 23:37:19;;;;;;;;;;;7.40;99.90;;;;;;8425622;28;19932;-76
2023/12/29 23:41:21;;;;;;;;;;;7.30;99.90;;;;;;8426809;28;19931;-76
2023/12/29 23:45:23;;;;;;;;;;;7.30;99.90;;;;;;8435543;28;19923;-76
2023/12/29 23:49:26;;;;;;;;;;;7.20;99.90;;;;;;8422216;28;19924;-76
2023/12/29 23:53:28;;;;;;;;;;;7.20;99.90;;;;;;8440804;28;20388;-75
2023/12/29 23:57:29;;;;;;;;;;;7.20;99.90;;;;;;8434941;28;20333;-76
